Time,TemperatureF,DewpointF,PressureIn,WindDirection,WindDirectionDegrees,WindSpeedMPH,WindSpeedGustMPH,Humidity,HourlyPrecipIn,Conditions,Clouds,dailyrainin,SolarRadiationWatts/m^2,SoftwareType,DateUTC
2013-06-03 00:22:00,76.0,44.0,-100.00,SE,131,7.0,19.0,32,0.00,,,0.00,418.000000,,2013-06-03 00:22:00,
2013-06-03 00:32:00,76.0,44.0,-100.00,SE,131,7.0,19.0,32,0.00,,,0.00,418.000000,,2013-06-03 00:32:00,
2013-06-03 00:42:00,76.0,44.0,-100.00,SE,131,7.0,19.0,32,0.00,,,0.00,418.000000,,2013-06-03 00:42:00,
2013-06-03 00:51:00,76.0,44.0,-100.00,SE,131,7.0,19.0,32,0.00,,,0.00,418.000000,,2013-06-03 00:51:00,
2013-06-03 01:11:00,75.0,41.0,-100.00,ESE,118,8.0,19.0,29,0.00,,,0.00,297.000000,,2013-06-03 01:11:00,
2013-06-03 01:21:00,75.0,41.0,-100.00,ESE,118,8.0,19.0,29,0.00,,,0.00,297.000000,,2013-06-03 01:21:00,
2013-06-03 01:32:00,75.0,41.0,-100.00,ESE,118,8.0,19.0,29,0.00,,,0.00,297.000000,,2013-06-03 01:32:00,
2013-06-03 01:42:00,75.0,41.0,-100.00,ESE,118,8.0,19.0,29,0.00,,,0.00,297.000000,,2013-06-03 01:42:00,
2013-06-03 01:52:00,75.0,41.0,-100.00,ESE,118,8.0,19.0,29,0.00,,,0.00,297.000000,,2013-06-03 01:52:00,
2013-06-03 02:22:00,71.0,43.0,-100.00,SE,143,6.0,18.0,36,0.00,,,0.00,108.000000,,2013-06-03 02:22:00,
2013-06-03 02:32:00,71.0,43.0,-100.00,SE,143,6.0,18.0,36,0.00,,,0.00,108.000000,,2013-06-03 02:32:00,
2013-06-03 02:42:00,71.0,43.0,-100.00,SE,143,6.0,18.0,36,0.00,,,0.00,108.000000,,2013-06-03 02:42:00,
2013-06-03 02:52:00,71.0,43.0,-100.00,SE,143,6.0,18.0,36,0.00,,,0.00,108.000000,,2013-06-03 02:52:00,
2013-06-03 03:22:00,68.0,45.0,-100.00,SE,131,7.0,19.0,43,0.00,,,0.00,7.000000,,2013-06-03 03:22:00,
2013-06-03 03:33:00,68.0,45.0,-100.00,SE,131,7.0,19.0,43,0.00,,,0.00,7.000000,,2013-06-03 03:33:00,
2013-06-03 03:43:00,68.0,45.0,-100.00,SE,131,7.0,19.0,43,0.00,,,0.00,7.000000,,2013-06-03 03:43:00,
2013-06-03 03:53:00,68.0,45.0,-100.00,SE,131,7.0,19.0,43,0.00,,,0.00,7.000000,,2013-06-03 03:53:00,
2013-06-03 04:23:00,67.0,44.0,-100.00,SE,136,8.0,21.0,44,0.00,,,0.00,0.000000,,2013-06-03 04:23:00,
2013-06-03 04:33:00,67.0,44.0,-100.00,SE,136,8.0,21.0,44,0.00,,,0.00,0.000000,,2013-06-03 04:33:00,
2013-06-03 04:42:00,67.0,44.0,-100.00,SE,136,8.0,21.0,44,0.00,,,0.00,0.000000,,2013-06-03 04:42:00,
2013-06-03 04:53:00,67.0,44.0,-100.00,SE,136,8.0,21.0,44,0.00,,,0.00,0.000000,,2013-06-03 04:53:00,
2013-06-03 05:22:00,65.0,44.0,-100.00,ESE,122,9.0,26.0,47,0.00,,,0.00,0.000000,,2013-06-03 05:22:00,
2013-06-03 05:32:00,65.0,44.0,-100.00,ESE,122,9.0,26.0,47,0.00,,,0.00,0.000000,,2013-06-03 05:32:00,
2013-06-03 05:42:00,65.0,44.0,-100.00,ESE,122,9.0,26.0,47,0.00,,,0.00,0.000000,,2013-06-03 05:42:00,
2013-06-03 05:52:00,65.0,44.0,-100.00,ESE,122,9.0,26.0,47,0.00,,,0.00,0.000000,,2013-06-03 05:52:00,
2013-06-03 06:22:00,63.0,44.0,-100.00,SE,132,10.0,23.0,49,0.00,,,0.00,0.000000,,2013-06-03 06:22:00,
2013-06-03 06:32:00,63.0,44.0,-100.00,SE,132,10.0,23.0,49,0.00,,,0.00,0.000000,,2013-06-03 06:32:00,
2013-06-03 06:42:00,63.0,44.0,-100.00,SE,132,10.0,23.0,49,0.00,,,0.00,0.000000,,2013-06-03 06:42:00,
2013-06-03 06:52:00,63.0,44.0,-100.00,SE,132,10.0,23.0,49,0.00,,,0.00,0.000000,,2013-06-03 06:52:00,
2013-06-03 07:22:00,60.0,44.0,-100.00,SSE,151,8.0,22.0,55,0.00,,,0.00,0.000000,,2013-06-03 07:22:00,
2013-06-03 07:32:00,60.0,44.0,-100.00,SSE,151,8.0,22.0,55,0.00,,,0.00,0.000000,,2013-06-03 07:32:00,
2013-06-03 07:42:00,60.0,44.0,-100.00,SSE,151,8.0,22.0,55,0.00,,,0.00,0.000000,,2013-06-03 07:42:00,
2013-06-03 07:52:00,60.0,44.0,-100.00,SSE,151,8.0,22.0,55,0.00,,,0.00,0.000000,,2013-06-03 07:52:00,
2013-06-03 08:12:00,58.0,45.0,-100.00,South,190,7.0,19.0,62,0.00,,,0.00,0.000000,,2013-06-03 08:12:00,
2013-06-03 08:22:00,58.0,45.0,-100.00,South,190,7.0,19.0,62,0.00,,,0.00,0.000000,,2013-06-03 08:22:00,
2013-06-03 08:32:00,58.0,45.0,-100.00,South,190,7.0,19.0,62,0.00,,,0.00,0.000000,,2013-06-03 08:32:00,
2013-06-03 08:42:00,58.0,45.0,-100.00,South,190,7.0,19.0,62,0.00,,,0.00,0.000000,,2013-06-03 08:42:00,
2013-06-03 08:52:00,58.0,45.0,-100.00,South,190,7.0,19.0,62,0.00,,,0.00,0.000000,,2013-06-03 08:52:00,
2013-06-03 09:22:00,58.0,43.0,-100.00,SE,141,6.0,15.0,58,0.00,,,0.00,0.000000,,2013-06-03 09:22:00,
2013-06-03 09:33:00,58.0,43.0,-100.00,SE,141,6.0,15.0,58,0.00,,,0.00,0.000000,,2013-06-03 09:33:00,
2013-06-03 09:42:00,58.0,43.0,-100.00,SE,141,6.0,15.0,58,0.00,,,0.00,0.000000,,2013-06-03 09:42:00,
2013-06-03 09:52:00,58.0,43.0,-100.00,SE,141,6.0,15.0,58,0.00,,,0.00,0.000000,,2013-06-03 09:52:00,
2013-06-03 10:22:00,56.0,43.0,-100.00,SE,138,4.0,14.0,62,0.00,,,0.00,0.000000,,2013-06-03 10:22:00,
2013-06-03 10:33:00,56.0,43.0,-100.00,SE,138,4.0,14.0,62,0.00,,,0.00,0.000000,,2013-06-03 10:33:00,
2013-06-03 10:42:00,56.0,43.0,-100.00,SE,138,4.0,14.0,62,0.00,,,0.00,0.000000,,2013-06-03 10:42:00,
2013-06-03 10:52:00,56.0,43.0,-100.00,SE,138,4.0,14.0,62,0.00,,,0.00,0.000000,,2013-06-03 10:52:00,
2013-06-03 11:22:00,56.0,44.0,-100.00,SW,218,3.0,13.0,63,0.00,,,0.00,0.000000,,2013-06-03 11:22:00,
2013-06-03 11:32:00,56.0,44.0,-100.00,SW,218,3.0,13.0,63,0.00,,,0.00,0.000000,,2013-06-03 11:32:00,
2013-06-03 11:42:00,56.0,44.0,-100.00,SW,218,3.0,13.0,63,0.00,,,0.00,0.000000,,2013-06-03 11:42:00,
2013-06-03 11:52:00,56.0,44.0,-100.00,SW,218,3.0,13.0,63,0.00,,,0.00,0.000000,,2013-06-03 11:52:00,
2013-06-03 12:22:00,56.0,43.0,-100.00,South,179,5.0,11.0,62,0.00,,,0.00,9.000000,,2013-06-03 12:22:00,
2013-06-03 12:32:00,56.0,43.0,-100.00,South,179,5.0,11.0,62,0.00,,,0.00,9.000000,,2013-06-03 12:32:00,
2013-06-03 12:42:00,56.0,43.0,-100.00,South,179,5.0,11.0,62,0.00,,,0.00,9.000000,,2013-06-03 12:42:00,
2013-06-03 12:52:00,56.0,43.0,-100.00,South,179,5.0,11.0,62,0.00,,,0.00,9.000000,,2013-06-03 12:52:00,
2013-06-03 13:22:00,58.0,44.0,-100.00,SSW,195,6.0,11.0,59,0.00,,,0.00,127.000000,,2013-06-03 13:22:00,
2013-06-03 13:32:00,58.0,44.0,-100.00,SSW,195,6.0,11.0,59,0.00,,,0.00,127.000000,,2013-06-03 13:32:00,
2013-06-03 13:42:00,58.0,44.0,-100.00,SSW,195,6.0,11.0,59,0.00,,,0.00,127.000000,,2013-06-03 13:42:00,
2013-06-03 13:52:00,58.0,44.0,-100.00,SSW,195,6.0,11.0,59,0.00,,,0.00,127.000000,,2013-06-03 13:52:00,
2013-06-03 14:22:00,62.0,46.0,-100.00,SW,215,4.0,8.0,56,0.00,,,0.00,351.000000,,2013-06-03 14:22:00,
2013-06-03 14:32:00,62.0,46.0,-100.00,SW,215,4.0,8.0,56,0.00,,,0.00,351.000000,,2013-06-03 14:32:00,
2013-06-03 14:42:00,62.0,46.0,-100.00,SW,215,4.0,8.0,56,0.00,,,0.00,351.000000,,2013-06-03 14:42:00,
2013-06-03 14:52:00,62.0,46.0,-100.00,SW,215,4.0,8.0,56,0.00,,,0.00,351.000000,,2013-06-03 14:52:00,
2013-06-03 15:22:00,64.0,45.0,-100.00,West,260,5.0,7.0,51,0.00,,,0.00,353.000000,,2013-06-03 15:22:00,
2013-06-03 15:33:00,64.0,45.0,-100.00,West,260,5.0,7.0,51,0.00,,,0.00,353.000000,,2013-06-03 15:33:00,
2013-06-03 15:43:00,64.0,45.0,-100.00,West,260,5.0,7.0,51,0.00,,,0.00,353.000000,,2013-06-03 15:43:00,
2013-06-03 15:53:00,64.0,45.0,-100.00,West,260,5.0,7.0,51,0.00,,,0.00,353.000000,,2013-06-03 15:53:00,
2013-06-03 16:23:00,67.0,47.0,-100.00,West,268,10.0,19.0,48,0.00,,,0.00,682.000000,,2013-06-03 16:23:00,
2013-06-03 16:33:00,67.0,47.0,-100.00,West,268,10.0,19.0,48,0.00,,,0.00,682.000000,,2013-06-03 16:33:00,
2013-06-03 16:42:00,67.0,47.0,-100.00,West,268,10.0,19.0,48,0.00,,,0.00,682.000000,,2013-06-03 16:42:00,
2013-06-03 16:53:00,67.0,47.0,-100.00,West,268,10.0,19.0,48,0.00,,,0.00,682.000000,,2013-06-03 16:53:00,
2013-06-03 17:22:00,69.0,51.0,-100.00,NW,308,7.0,19.0,52,0.00,,,0.00,827.000000,,2013-06-03 17:22:00,
2013-06-03 17:33:00,69.0,51.0,-100.00,NW,308,7.0,19.0,52,0.00,,,0.00,827.000000,,2013-06-03 17:33:00,
2013-06-03 17:42:00,69.0,51.0,-100.00,NW,308,7.0,19.0,52,0.00,,,0.00,827.000000,,2013-06-03 17:42:00,
2013-06-03 17:52:00,69.0,51.0,-100.00,NW,308,7.0,19.0,52,0.00,,,0.00,827.000000,,2013-06-03 17:52:00,
2013-06-03 18:22:00,70.0,48.0,-100.00,NW,304,9.0,23.0,46,0.00,,,0.00,929.000000,,2013-06-03 18:22:00,
2013-06-03 18:32:00,70.0,48.0,-100.00,NW,304,9.0,23.0,46,0.00,,,0.00,929.000000,,2013-06-03 18:32:00,
2013-06-03 18:42:00,70.0,48.0,-100.00,NW,304,9.0,23.0,46,0.00,,,0.00,929.000000,,2013-06-03 18:42:00,
2013-06-03 18:52:00,70.0,48.0,-100.00,NW,304,9.0,23.0,46,0.00,,,0.00,929.000000,,2013-06-03 18:52:00,
2013-06-03 19:22:00,71.0,47.0,-100.00,NNW,327,7.0,20.0,43,0.00,,,0.00,977.000000,,2013-06-03 19:22:00,
2013-06-03 19:32:00,71.0,47.0,-100.00,NNW,327,7.0,20.0,43,0.00,,,0.00,977.000000,,2013-06-03 19:32:00,
2013-06-03 19:42:00,71.0,47.0,-100.00,NNW,327,7.0,20.0,43,0.00,,,0.00,977.000000,,2013-06-03 19:42:00,
2013-06-03 19:52:00,71.0,47.0,-100.00,NNW,327,7.0,20.0,43,0.00,,,0.00,977.000000,,2013-06-03 19:52:00,
2013-06-03 20:22:00,72.0,44.0,-100.00,NW,311,9.0,19.0,36,0.00,,,0.00,979.000000,,2013-06-03 20:22:00,
2013-06-03 20:32:00,72.0,44.0,-100.00,NW,311,9.0,19.0,36,0.00,,,0.00,979.000000,,2013-06-03 20:32:00,
2013-06-03 20:42:00,72.0,44.0,-100.00,NW,311,9.0,19.0,36,0.00,,,0.00,979.000000,,2013-06-03 20:42:00,
2013-06-03 20:52:00,72.0,44.0,-100.00,NW,311,9.0,19.0,36,0.00,,,0.00,979.000000,,2013-06-03 20:52:00,
2013-06-03 21:22:00,73.0,44.0,-100.00,NW,306,9.0,19.0,36,0.00,,,0.00,925.000000,,2013-06-03 21:22:00,
2013-06-03 21:33:00,73.0,44.0,-100.00,NW,306,9.0,19.0,36,0.00,,,0.00,925.000000,,2013-06-03 21:33:00,
2013-06-03 21:43:00,73.0,44.0,-100.00,NW,306,9.0,19.0,36,0.00,,,0.00,925.000000,,2013-06-03 21:43:00,
2013-06-03 21:53:00,73.0,44.0,-100.00,NW,306,9.0,19.0,36,0.00,,,0.00,925.000000,,2013-06-03 21:53:00,
2013-06-03 22:22:00,74.0,42.0,-100.00,NW,313,7.0,19.0,32,0.00,,,0.00,815.000000,,2013-06-03 22:22:00,
2013-06-03 22:33:00,74.0,42.0,-100.00,NW,313,7.0,19.0,32,0.00,,,0.00,815.000000,,2013-06-03 22:33:00,
2013-06-03 22:42:00,74.0,42.0,-100.00,NW,313,7.0,19.0,32,0.00,,,0.00,815.000000,,2013-06-03 22:42:00,
2013-06-03 22:52:00,74.0,42.0,-100.00,NW,313,7.0,19.0,32,0.00,,,0.00,815.000000,,2013-06-03 22:52:00,
2013-06-03 23:22:00,73.0,41.0,-100.00,NNW,345,6.0,16.0,32,0.00,,,0.00,649.000000,,2013-06-03 23:22:00,
2013-06-03 23:32:00,73.0,41.0,-100.00,NNW,345,6.0,16.0,32,0.00,,,0.00,649.000000,,2013-06-03 23:32:00,
2013-06-03 23:42:00,73.0,41.0,-100.00,NNW,345,6.0,16.0,32,0.00,,,0.00,649.000000,,2013-06-03 23:42:00,
2013-06-03 23:52:00,73.0,41.0,-100.00,NNW,345,6.0,16.0,32,0.00,,,0.00,649.000000,,2013-06-03 23:52:00,